Time;durP1;ratioP1;P1;durP2;ratioP2;P2;SDS_P1;SDS_P2;PMS_P1;PMS_P2;Temp;Humidity;BMP_temperature;BMP_pressure;BME280_temperature;BME280_humidity;BME280_pressure;Samples;Min_cycle;Max_cycle;Signal;HPM_P1;HPM_P2
2024/02/04 00:00:37;;;;;;;;;;;21.70;33.40;;;;;;5055491;28;20409;-45
2024/02/04 00:03:04;;;;;;;;;;;21.70;33.40;;;;;;5055594;28;19925;-47
2024/02/04 00:05:31;;;;;;;;;;;21.70;33.40;;;;;;5055560;28;20444;-45
2024/02/04 00:07:58;;;;;;;;;;;21.70;33.40;;;;;;5055362;28;19996;-46
2024/02/04 00:10:26;;;;;;;;;;;21.70;33.40;;;;;;5055403;28;19979;-49
2024/02/04 00:12:54;;;;;;;;;;;21.70;33.40;;;;;;5055619;28;19925;-51
2024/02/04 00:15:21;;;;;;;;;;;21.70;33.40;;;;;;5055261;28;20370;-45
2024/02/04 00:17:48;;;;;;;;;;;21.60;33.40;;;;;;5054176;28;19964;-51
2024/02/04 00:20:15;;;;;;;;;;;21.60;33.40;;;;;;5055214;28;20444;-49
2024/02/04 00:22:42;;;;;;;;;;;21.70;33.40;;;;;;5055162;28;20448;-45
2024/02/04 00:25:11;;;;;;;;;;;21.70;33.40;;;;;;5055240;28;19971;-47
2024/02/04 00:27:39;;;;;;;;;;;21.60;33.40;;;;;;5055095;28;20366;-47
2024/02/04 00:30:07;;;;;;;;;;;21.60;33.40;;;;;;5055231;28;19970;-45
2024/02/04 00:32:34;;;;;;;;;;;21.60;33.40;;;;;;5054979;28;19929;-46
2024/02/04 00:35:01;;;;;;;;;;;21.60;33.40;;;;;;5054992;28;19925;-47
2024/02/04 00:37:28;;;;;;;;;;;21.60;33.40;;;;;;5054775;28;19924;-45
2024/02/04 00:39:55;;;;;;;;;;;21.60;33.50;;;;;;5054793;28;19978;-47
2024/02/04 00:42:22;;;;;;;;;;;21.60;33.40;;;;;;5055056;28;19925;-48
2024/02/04 00:44:49;;;;;;;;;;;21.60;33.50;;;;;;5054838;28;19925;-45
2024/02/04 00:47:15;;;;;;;;;;;21.60;33.50;;;;;;5054854;28;20019;-52
2024/02/04 00:49:42;;;;;;;;;;;21.60;33.40;;;;;;5053676;28;19932;-53
2024/02/04 00:52:09;;;;;;;;;;;21.60;33.40;;;;;;5054956;28;20377;-53
2024/02/04 00:54:36;;;;;;;;;;;21.60;33.40;;;;;;5074408;28;20373;-47
2024/02/04 00:57:03;;;;;;;;;;;21.60;33.40;;;;;;5074412;28;20012;-48
2024/02/04 00:59:30;;;;;;;;;;;21.60;33.40;;;;;;5074552;28;19994;-46
2024/02/04 01:01:58;;;;;;;;;;;21.60;33.50;;;;;;5074515;28;19928;-46
2024/02/04 01:04:25;;;;;;;;;;;21.60;33.40;;;;;;5074307;28;19924;-47
2024/02/04 01:06:53;;;;;;;;;;;21.60;33.30;;;;;;5074459;28;19947;-44
2024/02/04 01:09:28;;;;;;;;;;;21.60;33.50;;;;;;5074666;28;19928;-45
2024/02/04 01:11:55;;;;;;;;;;;21.60;33.40;;;;;;5074671;28;19924;-46
2024/02/04 01:14:22;;;;;;;;;;;21.70;33.40;;;;;;5074333;28;19924;-46
2024/02/04 01:16:49;;;;;;;;;;;21.60;33.30;;;;;;5074174;28;19925;-45
2024/02/04 01:19:16;;;;;;;;;;;21.60;33.30;;;;;;5074305;28;19929;-47
2024/02/04 01:21:44;;;;;;;;;;;21.60;33.30;;;;;;5073997;28;19924;-47
2024/02/04 01:24:11;;;;;;;;;;;21.60;33.40;;;;;;5073988;28;19931;-45
2024/02/04 01:26:38;;;;;;;;;;;21.60;33.40;;;;;;5073911;28;19928;-47
2024/02/04 01:29:05;;;;;;;;;;;21.60;33.40;;;;;;5073906;28;20293;-50
2024/02/04 01:31:32;;;;;;;;;;;21.60;33.40;;;;;;5056508;28;19925;-47
2024/02/04 01:33:59;;;;;;;;;;;21.60;33.40;;;;;;5073931;28;19924;-51
2024/02/04 01:36:27;;;;;;;;;;;21.60;33.40;;;;;;5073873;28;19926;-45
2024/02/04 01:38:54;;;;;;;;;;;21.60;33.40;;;;;;5055525;28;19998;-46
2024/02/04 01:41:21;;;;;;;;;;;21.60;33.40;;;;;;5073681;28;19971;-50
2024/02/04 01:43:48;;;;;;;;;;;21.60;33.40;;;;;;5056326;28;20278;-51
2024/02/04 01:46:15;;;;;;;;;;;21.50;33.40;;;;;;5073941;28;19924;-49
2024/02/04 01:48:42;;;;;;;;;;;21.60;33.40;;;;;;5073487;28;19932;-46
2024/02/04 01:51:09;;;;;;;;;;;21.60;33.40;;;;;;5073812;28;19928;-53
2024/02/04 01:53:38;;;;;;;;;;;21.60;33.40;;;;;;5073585;28;19971;-49
2024/02/04 01:56:05;;;;;;;;;;;21.60;33.40;;;;;;5073885;28;19928;-51
2024/02/04 01:58:32;;;;;;;;;;;21.60;33.40;;;;;;5073487;28;20373;-46
2024/02/04 02:00:59;;;;;;;;;;;21.60;33.30;;;;;;5073643;28;19980;-45
2024/02/04 02:03:27;;;;;;;;;;;21.60;33.40;;;;;;5073327;28;20370;-48
2024/02/04 02:05:55;;;;;;;;;;;21.60;33.40;;;;;;5073890;28;20289;-46
2024/02/04 02:08:22;;;;;;;;;;;21.60;33.40;;;;;;5073544;28;19925;-48
2024/02/04 02:10:51;;;;;;;;;;;21.60;33.40;;;;;;5073262;28;19971;-49
2024/02/04 02:13:22;;;;;;;;;;;21.60;33.30;;;;;;5073682;28;20290;-46
2024/02/04 02:15:53;;;;;;;;;;;21.60;33.30;;;;;;5073467;28;19924;-48
2024/02/04 02:18:27;;;;;;;;;;;21.60;33.30;;;;;;5073046;28;19931;-45
2024/02/04 02:21:02;;;;;;;;;;;21.60;33.30;;;;;;5073174;28;20412;-47
2024/02/04 02:23:40;;;;;;;;;;;21.60;33.30;;;;;;5073243;28;19925;-46
2024/02/04 02:26:07;;;;;;;;;;;21.60;33.30;;;;;;5073259;28;20282;-46
2024/02/04 02:28:34;;;;;;;;;;;21.60;33.30;;;;;;5073341;28;19958;-45
2024/02/04 02:31:01;;;;;;;;;;;21.60;33.30;;;;;;5073389;28;19959;-52
2024/02/04 02:33:33;;;;;;;;;;;21.60;33.30;;;;;;5073392;28;19924;-53
2024/02/04 02:36:02;;;;;;;;;;;21.60;33.30;;;;;;5073376;28;19925;-53
2024/02/04 02:38:41;;;;;;;;;;;21.60;33.30;;;;;;5072943;28;20309;-46
2024/02/04 02:41:08;;;;;;;;;;;21.60;33.30;;;;;;5073245;28;20063;-46
2024/02/04 02:43:35;;;;;;;;;;;21.60;33.30;;;;;;5073717;28;19971;-46
2024/02/04 02:46:02;;;;;;;;;;;21.60;33.30;;;;;;5073004;28;19932;-45
2024/02/04 02:48:30;;;;;;;;;;;21.60;33.90;;;;;;5073150;28;19932;-47
2024/02/04 02:50:58;;;;;;;;;;;21.60;33.40;;;;;;5077175;28;19924;-46
2024/02/04 02:53:25;;;;;;;;;;;21.50;33.30;;;;;;5077089;28;19924;-47
2024/02/04 02:55:51;;;;;;;;;;;21.50;33.30;;;;;;5077251;28;20014;-47
2024/02/04 02:58:18;;;;;;;;;;;21.60;33.40;;;;;;5076614;28;19924;-47
2024/02/04 03:00:45;;;;;;;;;;;21.60;33.40;;;;;;5077050;28;19924;-51
2024/02/04 03:03:12;;;;;;;;;;;21.50;33.30;;;;;;5076551;28;19924;-49
2024/02/04 03:05:39;;;;;;;;;;;21.50;33.30;;;;;;5076807;28;19924;-45
2024/02/04 03:08:06;;;;;;;;;;;21.50;33.30;;;;;;5076769;28;19952;-52
2024/02/04 03:10:34;;;;;;;;;;;21.50;33.30;;;;;;5076410;28;20439;-48
2024/02/04 03:13:02;;;;;;;;;;;21.50;33.30;;;;;;5076508;28;20274;-52
2024/02/04 03:15:29;;;;;;;;;;;21.60;33.30;;;;;;5076435;28;20028;-50
2024/02/04 03:17:56;;;;;;;;;;;21.60;33.30;;;;;;5076804;28;19924;-50
2024/02/04 03:20:23;;;;;;;;;;;21.60;33.30;;;;;;5076285;28;20381;-52
2024/02/04 03:22:50;;;;;;;;;;;21.60;33.30;;;;;;5076445;28;19931;-47
2024/02/04 03:25:17;;;;;;;;;;;21.50;33.20;;;;;;5076279;28;20365;-52
2024/02/04 03:27:44;;;;;;;;;;;21.60;33.30;;;;;;5076458;28;19928;-48
2024/02/04 03:30:11;;;;;;;;;;;21.60;33.30;;;;;;5075994;28;19928;-49
2024/02/04 03:32:38;;;;;;;;;;;21.60;33.20;;;;;;5076063;28;19932;-45
2024/02/04 03:35:05;;;;;;;;;;;21.50;33.20;;;;;;5076062;28;20428;-51
2024/02/04 03:37:32;;;;;;;;;;;21.50;33.20;;;;;;5075937;28;20369;-50
2024/02/04 03:39:59;;;;;;;;;;;21.50;33.20;;;;;;5075706;28;19978;-46
2024/02/04 03:42:26;;;;;;;;;;;21.50;33.30;;;;;;5075850;28;19925;-54
2024/02/04 03:44:53;;;;;;;;;;;21.50;33.30;;;;;;5075817;28;19924;-51
2024/02/04 03:47:21;;;;;;;;;;;21.50;33.30;;;;;;5076029;28;19925;-51
2024/02/04 03:49:47;;;;;;;;;;;21.50;33.30;;;;;;5075916;28;19951;-50
2024/02/04 03:52:14;;;;;;;;;;;21.50;33.30;;;;;;5075862;28;19924;-49
2024/02/04 03:54:41;;;;;;;;;;;21.50;33.30;;;;;;5076122;28;19925;-51
2024/02/04 03:57:08;;;;;;;;;;;21.50;33.30;;;;;;5076003;28;20397;-49
2024/02/04 03:59:35;;;;;;;;;;;21.50;33.30;;;;;;5075432;28;20354;-51
2024/02/04 04:02:02;;;;;;;;;;;21.50;33.30;;;;;;5075370;28;19929;-51
2024/02/04 04:04:29;;;;;;;;;;;21.50;33.40;;;;;;5075749;28;19924;-51
2024/02/04 04:06:57;;;;;;;;;;;21.50;33.30;;;;;;5075913;28;19924;-51
2024/02/04 04:09:24;;;;;;;;;;;21.50;33.40;;;;;;5075371;28;19925;-49
2024/02/04 04:11:51;;;;;;;;;;;21.50;33.30;;;;;;5075918;28;20334;-51
2024/02/04 04:14:18;;;;;;;;;;;21.50;33.30;;;;;;5075748;28;20357;-51
2024/02/04 04:16:45;;;;;;;;;;;21.50;33.30;;;;;;5076051;28;20317;-54
2024/02/04 04:19:12;;;;;;;;;;;21.50;33.30;;;;;;5075185;28;20011;-51
2024/02/04 04:21:40;;;;;;;;;;;21.50;33.20;;;;;;5075128;28;19982;-53
2024/02/04 04:24:07;;;;;;;;;;;21.50;33.20;;;;;;5075270;28;19925;-52
2024/02/04 04:26:34;;;;;;;;;;;21.50;33.20;;;;;;5075574;28;20007;-52
2024/02/04 04:29:00;;;;;;;;;;;21.50;33.20;;;;;;5075247;28;19925;-48
2024/02/04 04:31:28;;;;;;;;;;;21.50;33.20;;;;;;5075527;28;19970;-51
2024/02/04 04:33:55;;;;;;;;;;;21.50;33.20;;;;;;5075219;28;19990;-50
2024/02/04 04:36:23;;;;;;;;;;;21.50;33.20;;;;;;5074047;28;20019;-50
2024/02/04 04:38:50;;;;;;;;;;;21.50;33.10;;;;;;5075093;28;19924;-51
2024/02/04 04:41:17;;;;;;;;;;;21.50;32.90;;;;;;5075219;28;20020;-52
2024/02/04 04:43:44;;;;;;;;;;;21.50;32.90;;;;;;5074737;28;19964;-51
2024/02/04 04:46:11;;;;;;;;;;;21.60;32.80;;;;;;5075036;28;19979;-52
2024/02/04 04:48:38;;;;;;;;;;;21.60;32.70;;;;;;5074823;28;19947;-52
2024/02/04 04:51:08;;;;;;;;;;;21.60;32.60;;;;;;5075044;28;19931;-52
2024/02/04 04:53:35;;;;;;;;;;;21.60;32.60;;;;;;5074722;28;19931;-51
2024/02/04 04:56:02;;;;;;;;;;;21.60;32.50;;;;;;5074947;28;19932;-55
2024/02/04 04:58:29;;;;;;;;;;;21.60;32.50;;;;;;5074557;28;19963;-52
2024/02/04 05:00:56;;;;;;;;;;;21.60;32.50;;;;;;5074659;28;20277;-60
2024/02/04 05:03:23;;;;;;;;;;;21.50;32.40;;;;;;5074316;28;19924;-53
2024/02/04 05:05:50;;;;;;;;;;;21.50;32.30;;;;;;5074551;28;19924;-54
2024/02/04 05:08:17;;;;;;;;;;;21.60;32.40;;;;;;5074451;28;19925;-54
2024/02/04 05:10:44;;;;;;;;;;;21.60;32.40;;;;;;5074245;28;20425;-57
2024/02/04 05:13:10;;;;;;;;;;;21.60;32.30;;;;;;5073444;28;19928;-53
2024/02/04 05:15:37;;;;;;;;;;;21.60;32.30;;;;;;5074206;28;19924;-56
2024/02/04 05:18:04;;;;;;;;;;;21.60;32.20;;;;;;5073978;28;19924;-56
2024/02/04 05:20:31;;;;;;;;;;;21.60;32.20;;;;;;5073942;28;20381;-45
2024/02/04 05:22:58;;;;;;;;;;;21.60;32.20;;;;;;5074007;28;19978;-44
2024/02/04 05:25:26;;;;;;;;;;;21.60;32.20;;;;;;5073894;28;19958;-46
2024/02/04 05:27:53;;;;;;;;;;;21.60;32.20;;;;;;5073943;28;19928;-45
2024/02/04 05:30:20;;;;;;;;;;;21.60;32.10;;;;;;5073782;28;20404;-45
2024/02/04 05:32:47;;;;;;;;;;;21.60;32.10;;;;;;5074117;28;19983;-46
2024/02/04 05:35:14;;;;;;;;;;;21.60;32.10;;;;;;5073968;28;20007;-45
2024/02/04 05:37:41;;;;;;;;;;;21.60;32.10;;;;;;5073765;28;19935;-47
2024/02/04 05:40:08;;;;;;;;;;;21.60;32.10;;;;;;5069652;28;19962;-46
2024/02/04 05:42:36;;;;;;;;;;;21.60;32.00;;;;;;5052227;28;19935;-47
2024/02/04 05:45:05;;;;;;;;;;;21.60;32.00;;;;;;5072539;28;19925;-45
2024/02/04 05:47:32;;;;;;;;;;;21.60;32.00;;;;;;5073772;28;19928;-45
2024/02/04 05:49:59;;;;;;;;;;;21.60;32.00;;;;;;5072106;28;19929;-44
2024/02/04 05:52:27;;;;;;;;;;;21.70;32.10;;;;;;5072265;28;20023;-45
2024/02/04 05:54:53;;;;;;;;;;;21.70;32.00;;;;;;5069013;28;19977;-45
2024/02/04 05:57:20;;;;;;;;;;;21.60;32.00;;;;;;5073265;28;20003;-47
2024/02/04 05:59:48;;;;;;;;;;;21.70;32.00;;;;;;5071284;28;19925;-45
2024/02/04 06:02:15;;;;;;;;;;;21.70;32.00;;;;;;5070884;28;19924;-46
2024/02/04 06:04:42;;;;;;;;;;;21.70;32.00;;;;;;5055604;28;19931;-52
2024/02/04 06:07:09;;;;;;;;;;;21.70;32.00;;;;;;5073739;28;19928;-53
2024/02/04 06:09:36;;;;;;;;;;;21.70;32.00;;;;;;5073100;28;20386;-52
2024/02/04 06:12:06;;;;;;;;;;;21.70;31.90;;;;;;5073758;28;19931;-44
2024/02/04 06:14:34;;;;;;;;;;;21.70;32.00;;;;;;5073219;28;19928;-48
2024/02/04 06:17:01;;;;;;;;;;;21.70;31.90;;;;;;5073293;28;20011;-47
2024/02/04 06:19:28;;;;;;;;;;;21.70;31.90;;;;;;5073496;28;19970;-45
2024/02/04 06:21:55;;;;;;;;;;;21.70;31.90;;;;;;5073169;28;19924;-48
2024/02/04 06:24:22;;;;;;;;;;;21.70;31.90;;;;;;5072958;28;19925;-47
2024/02/04 06:26:49;;;;;;;;;;;21.70;31.90;;;;;;5073273;28;20386;-44
2024/02/04 06:29:16;;;;;;;;;;;21.70;31.90;;;;;;5073273;28;19970;-44
2024/02/04 06:31:46;;;;;;;;;;;21.80;31.90;;;;;;5073232;28;19964;-45
2024/02/04 06:34:13;;;;;;;;;;;21.80;31.90;;;;;;5073422;28;19924;-45
2024/02/04 06:36:46;;;;;;;;;;;21.80;31.90;;;;;;5072922;28;19974;-46
2024/02/04 06:39:13;;;;;;;;;;;21.80;31.90;;;;;;5072925;28;19924;-46
2024/02/04 06:41:40;;;;;;;;;;;21.80;31.90;;;;;;5073152;28;19971;-50
2024/02/04 06:44:07;;;;;;;;;;;21.80;31.80;;;;;;5068958;28;20293;-46
2024/02/04 06:46:34;;;;;;;;;;;21.80;31.80;;;;;;5057912;28;19968;-47
2024/02/04 06:49:01;;;;;;;;;;;21.80;31.80;;;;;;5057065;28;19931;-51
2024/02/04 06:51:28;;;;;;;;;;;21.80;31.80;;;;;;5071681;28;19925;-46
2024/02/04 06:53:55;;;;;;;;;;;21.80;31.80;;;;;;5073302;28;19925;-48
2024/02/04 06:56:22;;;;;;;;;;;21.80;31.80;;;;;;5073205;28;20336;-49
2024/02/04 06:58:49;;;;;;;;;;;21.80;31.70;;;;;;5072885;28;20289;-45
2024/02/04 07:01:16;;;;;;;;;;;21.80;31.70;;;;;;5073246;28;19925;-45
2024/02/04 07:03:43;;;;;;;;;;;21.90;31.80;;;;;;5072876;28;19924;-46
2024/02/04 07:06:10;;;;;;;;;;;21.90;31.70;;;;;;5072870;28;20385;-45
2024/02/04 07:08:37;;;;;;;;;;;21.90;31.70;;;;;;5072420;28;20011;-47
2024/02/04 07:11:04;;;;;;;;;;;21.90;31.70;;;;;;5072678;28;20020;-51
2024/02/04 07:13:31;;;;;;;;;;;21.90;31.70;;;;;;5072566;28;19931;-48
2024/02/04 07:15:58;;;;;;;;;;;21.90;31.60;;;;;;5073117;28;19924;-48
2024/02/04 07:18:25;;;;;;;;;;;21.90;31.70;;;;;;5072890;28;19925;-44
2024/02/04 07:20:52;;;;;;;;;;;21.90;31.60;;;;;;5072436;28;19986;-48
2024/02/04 07:23:19;;;;;;;;;;;21.90;31.60;;;;;;5072732;28;20016;-48
2024/02/04 07:25:46;;;;;;;;;;;22.00;31.60;;;;;;5072730;28;19925;-45
2024/02/04 07:28:13;;;;;;;;;;;22.00;31.60;;;;;;5054606;28;19977;-51
2024/02/04 07:30:40;;;;;;;;;;;22.00;31.50;;;;;;5072806;28;20353;-45
2024/02/04 07:33:07;;;;;;;;;;;22.00;31.50;;;;;;5072685;28;19924;-47
2024/02/04 07:35:34;;;;;;;;;;;22.00;31.50;;;;;;5072788;28;20332;-45
2024/02/04 07:38:01;;;;;;;;;;;22.10;31.50;;;;;;5075886;28;20381;-46
2024/02/04 07:40:30;;;;;;;;;;;22.10;31.50;;;;;;5076161;28;19931;-46
2024/02/04 07:42:57;;;;;;;;;;;22.10;31.50;;;;;;5076236;28;20348;-48
2024/02/04 07:45:24;;;;;;;;;;;22.10;31.50;;;;;;5075941;28;19925;-45
2024/02/04 07:47:51;;;;;;;;;;;22.10;31.40;;;;;;5057923;28;19968;-51
2024/02/04 07:50:18;;;;;;;;;;;22.10;31.40;;;;;;5075726;28;19951;-45
2024/02/04 07:52:45;;;;;;;;;;;22.20;31.50;;;;;;5075741;28;19930;-52
2024/02/04 07:55:12;;;;;;;;;;;22.10;31.50;;;;;;5075811;28;19929;-53
2024/02/04 07:57:40;;;;;;;;;;;22.20;31.50;;;;;;5075783;28;20373;-47
2024/02/04 08:00:09;;;;;;;;;;;22.20;31.50;;;;;;5075903;28;19932;-52
2024/02/04 08:02:37;;;;;;;;;;;22.20;31.50;;;;;;5075414;28;19928;-50
2024/02/04 08:05:06;;;;;;;;;;;22.20;31.40;;;;;;5075310;28;20205;-46
2024/02/04 08:07:33;;;;;;;;;;;22.20;31.40;;;;;;5075737;28;19924;-50
2024/02/04 08:10:00;;;;;;;;;;;22.20;31.40;;;;;;5075756;28;19928;-50
2024/02/04 08:12:27;;;;;;;;;;;22.30;31.50;;;;;;5075128;28;20066;-48
2024/02/04 08:14:54;;;;;;;;;;;22.30;31.40;;;;;;5075801;28;19931;-47
2024/02/04 08:17:21;;;;;;;;;;;22.40;31.40;;;;;;5075678;28;19925;-51
2024/02/04 08:19:51;;;;;;;;;;;22.40;31.40;;;;;;5075244;28;19972;-45
2024/02/04 08:22:19;;;;;;;;;;;22.40;31.40;;;;;;5075244;28;19931;-47
2024/02/04 08:24:46;;;;;;;;;;;22.40;31.30;;;;;;5075622;28;19950;-45
2024/02/04 08:27:17;;;;;;;;;;;22.50;31.40;;;;;;5075624;28;19924;-47
2024/02/04 08:29:45;;;;;;;;;;;22.50;31.40;;;;;;5075527;28;20022;-48
2024/02/04 08:32:15;;;;;;;;;;;22.50;31.30;;;;;;5074972;28;19926;-47
2024/02/04 08:34:41;;;;;;;;;;;22.50;31.20;;;;;;5075415;28;19925;-47
2024/02/04 08:37:09;;;;;;;;;;;22.60;31.30;;;;;;5075155;28;19925;-49
2024/02/04 08:39:36;;;;;;;;;;;22.60;31.30;;;;;;5074685;28;19978;-46
2024/02/04 08:42:03;;;;;;;;;;;22.60;31.20;;;;;;5074897;28;19924;-45
2024/02/04 08:44:30;;;;;;;;;;;22.70;31.30;;;;;;5075218;28;19935;-48
2024/02/04 08:47:05;;;;;;;;;;;22.70;31.30;;;;;;5074655;28;19970;-46
2024/02/04 08:49:32;;;;;;;;;;;22.70;31.20;;;;;;5057106;28;20373;-44
2024/02/04 08:51:59;;;;;;;;;;;22.70;31.20;;;;;;5074804;28;19924;-45
2024/02/04 08:54:27;;;;;;;;;;;22.70;31.20;;;;;;5074821;28;19924;-49
2024/02/04 08:56:54;;;;;;;;;;;22.70;31.20;;;;;;5074662;28;20361;-45
2024/02/04 08:59:21;;;;;;;;;;;22.70;31.20;;;;;;5074443;28;19928;-45
2024/02/04 09:01:47;;;;;;;;;;;22.80;31.30;;;;;;5074844;28;19924;-44
2024/02/04 09:04:15;;;;;;;;;;;22.80;31.30;;;;;;5074557;28;19931;-46
2024/02/04 09:06:42;;;;;;;;;;;22.80;31.30;;;;;;5074077;28;19924;-50
2024/02/04 09:09:09;;;;;;;;;;;22.90;31.30;;;;;;5074196;28;19964;-46
2024/02/04 09:11:36;;;;;;;;;;;22.90;31.30;;;;;;5074359;28;20024;-50
2024/02/04 09:14:04;;;;;;;;;;;22.90;31.20;;;;;;5074435;28;19924;-47
2024/02/04 09:16:31;;;;;;;;;;;23.00;31.20;;;;;;5074242;28;19974;-45
2024/02/04 09:18:58;;;;;;;;;;;23.00;31.20;;;;;;5074505;28;19931;-52
2024/02/04 09:21:26;;;;;;;;;;;23.00;31.10;;;;;;5074490;28;19925;-50
2024/02/04 09:23:53;;;;;;;;;;;23.10;31.10;;;;;;5074300;28;19971;-47
2024/02/04 09:26:20;;;;;;;;;;;23.10;31.10;;;;;;5056502;28;20456;-47
2024/02/04 09:28:47;;;;;;;;;;;23.10;31.60;;;;;;5074225;28;20023;-48
2024/02/04 09:31:14;;;;;;;;;;;23.10;31.10;;;;;;5073865;28;19925;-48
2024/02/04 09:33:41;;;;;;;;;;;23.20;31.10;;;;;;5073815;28;20103;-51
2024/02/04 09:36:09;;;;;;;;;;;23.20;31.10;;;;;;5074122;28;19925;-45
2024/02/04 09:38:36;;;;;;;;;;;23.20;31.00;;;;;;5073765;28;19928;-46
2024/02/04 09:41:04;;;;;;;;;;;23.20;31.00;;;;;;5073832;28;19962;-45
2024/02/04 09:43:32;;;;;;;;;;;23.30;31.10;;;;;;5073877;28;20011;-50
2024/02/04 09:46:00;;;;;;;;;;;23.30;31.10;;;;;;5073818;28;19924;-51
2024/02/04 09:48:32;;;;;;;;;;;23.30;31.10;;;;;;5073309;28;19925;-49
2024/02/04 09:50:59;;;;;;;;;;;23.30;31.00;;;;;;5073560;28;20019;-49
2024/02/04 09:53:33;;;;;;;;;;;23.30;31.10;;;;;;5073537;28;19924;-50
2024/02/04 09:56:01;;;;;;;;;;;23.40;31.10;;;;;;5073436;28;20443;-48
2024/02/04 09:58:29;;;;;;;;;;;23.40;31.10;;;;;;5073002;28;19978;-45
2024/02/04 10:00:57;;;;;;;;;;;23.40;31.60;;;;;;5073215;28;19924;-53
2024/02/04 10:03:24;;;;;;;;;;;23.40;31.00;;;;;;5073632;28;19930;-48
2024/02/04 10:05:51;;;;;;;;;;;23.40;31.00;;;;;;5073728;28;19975;-53
2024/02/04 10:08:19;;;;;;;;;;;23.40;31.10;;;;;;5073469;28;19924;-52
2024/02/04 10:10:47;;;;;;;;;;;23.40;31.10;;;;;;5073474;28;19925;-53
2024/02/04 10:13:15;;;;;;;;;;;23.40;31.10;;;;;;5073090;28;19964;-49
2024/02/04 10:15:42;;;;;;;;;;;23.40;31.20;;;;;;5073281;28;20370;-48
2024/02/04 10:18:09;;;;;;;;;;;23.40;31.20;;;;;;5073192;28;20404;-48
2024/02/04 10:20:36;;;;;;;;;;;23.40;31.20;;;;;;5073104;28;20023;-48
2024/02/04 10:23:03;;;;;;;;;;;23.50;31.30;;;;;;5073480;28;19924;-45
2024/02/04 10:25:31;;;;;;;;;;;23.60;31.40;;;;;;5073581;28;20011;-47
2024/02/04 10:27:59;;;;;;;;;;;23.60;31.40;;;;;;5073432;28;19947;-49
2024/02/04 10:30:26;;;;;;;;;;;23.60;31.40;;;;;;5072895;28;19931;-47
2024/02/04 10:32:53;;;;;;;;;;;23.60;31.30;;;;;;5073387;28;19932;-49
2024/02/04 10:35:22;;;;;;;;;;;23.60;31.30;;;;;;5073470;28;19924;-48
2024/02/04 10:37:50;;;;;;;;;;;23.60;31.30;;;;;;5073135;28;19963;-47
2024/02/04 10:40:18;;;;;;;;;;;23.60;31.30;;;;;;5073028;28;19999;-50
2024/02/04 10:42:46;;;;;;;;;;;23.60;31.30;;;;;;5073207;28;19924;-51
2024/02/04 10:45:17;;;;;;;;;;;23.60;31.30;;;;;;5072923;28;19928;-46
2024/02/04 10:47:46;;;;;;;;;;;23.60;31.30;;;;;;5073173;28;20003;-45
2024/02/04 10:50:14;;;;;;;;;;;23.60;31.20;;;;;;5073165;28;19924;-46
2024/02/04 10:52:43;;;;;;;;;;;23.70;31.30;;;;;;5073013;28;19943;-45
2024/02/04 10:55:10;;;;;;;;;;;23.70;31.30;;;;;;5072939;28;19988;-51
2024/02/04 10:57:39;;;;;;;;;;;23.70;31.20;;;;;;5072948;28;20374;-47
2024/02/04 11:00:11;;;;;;;;;;;23.70;31.20;;;;;;5073273;28;20007;-52
2024/02/04 11:02:40;;;;;;;;;;;23.80;31.20;;;;;;5072716;28;20377;-50
2024/02/04 11:05:08;;;;;;;;;;;23.80;31.10;;;;;;5072865;28;20393;-48
2024/02/04 11:07:35;;;;;;;;;;;23.80;31.10;;;;;;5073076;28;19924;-48
2024/02/04 11:10:03;;;;;;;;;;;23.90;31.10;;;;;;5073956;28;19924;-48
2024/02/04 11:12:31;;;;;;;;;;;23.90;30.90;;;;;;5076903;28;19925;-45
2024/02/04 11:15:04;;;;;;;;;;;23.90;30.90;;;;;;5076621;28;19970;-51
2024/02/04 11:17:45;;;;;;;;;;;24.00;30.90;;;;;;5076512;28;20382;-48
2024/02/04 11:20:20;;;;;;;;;;;24.00;30.80;;;;;;5076894;28;19924;-50
2024/02/04 11:23:00;;;;;;;;;;;24.00;30.80;;;;;;5076796;28;19978;-47
2024/02/04 11:25:37;;;;;;;;;;;24.10;30.80;;;;;;5058659;28;20309;-46
2024/02/04 11:28:04;;;;;;;;;;;24.10;30.80;;;;;;5076316;28;20442;-50
2024/02/04 11:30:35;;;;;;;;;;;24.10;30.60;;;;;;5076088;28;19928;-50
2024/02/04 11:33:03;;;;;;;;;;;24.20;30.60;;;;;;5076085;28;19924;-51
2024/02/04 11:35:32;;;;;;;;;;;24.20;30.60;;;;;;5076649;28;19925;-52
2024/02/04 11:38:00;;;;;;;;;;;24.30;30.60;;;;;;5076093;28;20002;-47
2024/02/04 11:40:37;;;;;;;;;;;24.30;30.50;;;;;;5076350;28;20328;-51
2024/02/04 11:43:05;;;;;;;;;;;24.30;30.40;;;;;;5076106;28;19931;-48
2024/02/04 11:45:32;;;;;;;;;;;24.40;30.40;;;;;;5075927;28;19931;-51
2024/02/04 11:48:03;;;;;;;;;;;24.40;30.40;;;;;;5075961;28;19935;-51
2024/02/04 11:50:34;;;;;;;;;;;24.40;30.30;;;;;;5075625;28;19977;-49
2024/02/04 11:53:09;;;;;;;;;;;24.50;30.30;;;;;;5075812;28;19925;-48
2024/02/04 11:55:36;;;;;;;;;;;24.50;30.30;;;;;;5075799;28;19924;-50
2024/02/04 11:58:09;;;;;;;;;;;24.50;30.20;;;;;;5076086;28;20078;-51
2024/02/04 12:00:36;;;;;;;;;;;24.50;30.20;;;;;;5075518;28;19941;-52
2024/02/04 12:03:04;;;;;;;;;;;24.60;30.20;;;;;;5075263;28;20370;-51
2024/02/04 12:05:33;;;;;;;;;;;24.60;30.10;;;;;;5076020;28;19925;-49
2024/02/04 12:08:04;;;;;;;;;;;24.60;30.10;;;;;;5075797;28;20271;-51
2024/02/04 12:10:32;;;;;;;;;;;24.60;30.00;;;;;;5075161;28;20027;-50
2024/02/04 12:13:01;;;;;;;;;;;24.60;30.00;;;;;;5075692;28;19950;-50
2024/02/04 12:15:30;;;;;;;;;;;24.70;30.00;;;;;;5075510;28;19970;-50
2024/02/04 12:18:10;;;;;;;;;;;24.60;30.00;;;;;;5075690;28;19959;-52
2024/02/04 12:20:37;;;;;;;;;;;24.70;30.00;;;;;;5075488;28;19928;-51
2024/02/04 12:23:05;;;;;;;;;;;24.70;30.00;;;;;;5074623;28;20384;-48
2024/02/04 12:25:32;;;;;;;;;;;24.70;30.00;;;;;;5075451;28;19974;-51
2024/02/04 12:27:59;;;;;;;;;;;24.70;29.90;;;;;;5075563;28;19925;-50
2024/02/04 12:30:27;;;;;;;;;;;24.70;29.90;;;;;;5075112;28;19928;-49
2024/02/04 12:32:57;;;;;;;;;;;24.70;29.80;;;;;;5075269;28;20007;-51
2024/02/04 12:35:25;;;;;;;;;;;24.70;29.80;;;;;;5074995;28;19924;-50
2024/02/04 12:37:52;;;;;;;;;;;24.70;29.80;;;;;;5074796;28;19928;-50
2024/02/04 12:40:26;;;;;;;;;;;24.70;29.80;;;;;;5074896;28;19925;-52
2024/02/04 12:42:57;;;;;;;;;;;24.70;29.80;;;;;;5074817;28;19963;-54
2024/02/04 12:45:31;;;;;;;;;;;24.70;29.80;;;;;;5074981;28;19994;-54
2024/02/04 12:47:58;;;;;;;;;;;24.70;29.80;;;;;;5074876;28;19931;-52
2024/02/04 12:50:26;;;;;;;;;;;24.70;29.80;;;;;;5074963;28;19939;-53
2024/02/04 12:53:05;;;;;;;;;;;24.70;29.80;;;;;;5075270;28;20015;-50
2024/02/04 12:55:33;;;;;;;;;;;24.70;29.80;;;;;;5075022;28;19975;-54
2024/02/04 12:58:12;;;;;;;;;;;24.70;29.80;;;;;;5057082;28;19924;-52
2024/02/04 13:00:42;;;;;;;;;;;24.70;29.80;;;;;;5074757;28;19935;-55
2024/02/04 13:03:09;;;;;;;;;;;24.70;29.80;;;;;;5073532;28;20011;-52
2024/02/04 13:05:37;;;;;;;;;;;24.70;29.80;;;;;;5072760;28;19928;-51
2024/02/04 13:08:05;;;;;;;;;;;24.70;29.80;;;;;;5074283;28;19931;-50
2024/02/04 13:10:34;;;;;;;;;;;24.70;29.80;;;;;;5074265;28;19975;-57
2024/02/04 13:13:02;;;;;;;;;;;24.70;29.80;;;;;;5074289;28;19970;-53
2024/02/04 13:15:29;;;;;;;;;;;24.70;29.80;;;;;;5056967;28;19948;-52
2024/02/04 13:17:56;;;;;;;;;;;24.70;29.80;;;;;;5074044;28;19975;-47
2024/02/04 13:20:24;;;;;;;;;;;24.70;29.80;;;;;;5074022;28;19924;-47
2024/02/04 13:22:57;;;;;;;;;;;24.70;29.80;;;;;;5074314;28;19931;-52
2024/02/04 13:25:24;;;;;;;;;;;24.70;29.80;;;;;;5074336;28;19924;-47
2024/02/04 13:27:51;;;;;;;;;;;24.70;29.80;;;;;;5074337;28;19932;-49
2024/02/04 13:30:19;;;;;;;;;;;24.70;29.80;;;;;;5073833;28;19924;-46
2024/02/04 13:32:46;;;;;;;;;;;24.70;29.80;;;;;;5073775;28;19928;-48
2024/02/04 13:35:15;;;;;;;;;;;24.70;29.90;;;;;;5073603;28;19958;-45
2024/02/04 13:37:47;;;;;;;;;;;24.70;29.80;;;;;;5073749;28;19924;-47
2024/02/04 13:40:15;;;;;;;;;;;24.70;29.90;;;;;;5074034;28;20332;-46
2024/02/04 13:42:43;;;;;;;;;;;24.70;29.80;;;;;;5073942;28;19932;-52
2024/02/04 13:45:10;;;;;;;;;;;24.70;29.80;;;;;;5073530;28;19970;-47
2024/02/04 13:47:37;;;;;;;;;;;24.70;29.80;;;;;;5071820;28;20010;-50
2024/02/04 13:50:04;;;;;;;;;;;24.70;29.80;;;;;;5070017;28;20369;-47
2024/02/04 13:52:32;;;;;;;;;;;24.70;29.80;;;;;;5073374;28;19928;-49
2024/02/04 13:54:59;;;;;;;;;;;24.70;29.80;;;;;;5071235;28;20362;-49
2024/02/04 13:57:26;;;;;;;;;;;24.70;29.80;;;;;;5068981;28;19924;-50
2024/02/04 13:59:54;;;;;;;;;;;24.70;29.80;;;;;;5072026;28;20006;-48
2024/02/04 14:02:23;;;;;;;;;;;24.70;29.80;;;;;;5065490;28;19962;-48
2024/02/04 14:04:50;;;;;;;;;;;24.70;29.80;;;;;;5073636;28;20352;-48
2024/02/04 14:07:17;;;;;;;;;;;24.70;29.80;;;;;;5060395;28;19955;-47
2024/02/04 14:09:44;;;;;;;;;;;24.70;29.80;;;;;;5072493;28;20022;-45
2024/02/04 14:12:12;;;;;;;;;;;24.70;29.80;;;;;;5059621;28;19940;-46
2024/02/04 14:14:39;;;;;;;;;;;24.70;29.80;;;;;;5071396;28;19924;-49
2024/02/04 14:17:06;;;;;;;;;;;24.70;29.70;;;;;;5053164;28;20378;-45
2024/02/04 14:19:33;;;;;;;;;;;24.70;29.70;;;;;;5070628;28;19990;-48